Time;durP1;ratioP1;P1;durP2;ratioP2;P2;SDS_P1;SDS_P2;PMS_P1;PMS_P2;Temp;Humidity;BMP_temperature;BMP_pressure;BME280_temperature;BME280_humidity;BME280_pressure;Samples;Min_cycle;Max_cycle;Signal;HPM_P1;HPM_P2
2024/04/05 05:51:44;;;;;;;6.38;1.60;;;;;;;10.47;100.00;96506.22;2084779;28;20908;-64
2024/04/05 05:52:44;;;;;;;11.03;1.73;;;;;;;10.53;100.00;96513.78;2074337;28;20217;-64
2024/04/05 06:08:07;;;;;;;5.53;1.30;;;;;;;11.28;94.94;96532.81;2092886;27;21052;-65
2024/04/05 06:20:05;;;;;;;13.73;2.05;;;;;;;11.79;92.26;96526.00;2083316;28;20572;-65
2024/04/05 06:23:08;;;;;;;7.72;1.58;;;;;;;12.12;91.16;96535.66;2100033;27;20560;-63
2024/04/05 06:26:00;;;;;;;7.82;2.00;;;;;;;12.26;90.19;96517.44;2099806;27;20558;-65
2024/04/05 06:28:45;;;;;;;6.93;1.35;;;;;;;12.53;89.54;96532.59;2084938;28;21078;-65
2024/04/05 06:29:54;;;;;;;6.80;1.80;;;;;;;12.67;88.13;96531.84;2080342;28;20218;-66
2024/04/05 06:32:27;;;;;;;3.05;1.50;;;;;;;12.83;87.26;96526.59;2094302;27;21072;-66
2024/04/05 06:33:29;;;;;;;10.70;2.87;;;;;;;13.13;85.94;96513.56;2090148;28;20219;-66
2024/04/05 06:36:07;;;;;;;6.95;1.20;;;;;;;13.23;84.69;96513.88;2089684;27;20580;-66
2024/04/05 06:37:08;;;;;;;5.80;1.40;;;;;;;13.19;85.29;96522.81;2086681;28;20716;-66
2024/04/05 06:38:08;;;;;;;3.73;1.30;;;;;;;13.27;84.22;96514.53;2078442;28;20582;-66
2024/04/05 06:39:09;;;;;;;5.63;1.50;;;;;;;13.36;83.50;96520.09;2078590;28;20909;-66
2024/04/05 06:40:10;;;;;;;5.60;1.30;;;;;;;13.48;83.81;96517.72;2074821;28;21130;-66
2024/04/05 06:41:10;;;;;;;4.03;1.20;;;;;;;13.51;83.43;96522.78;2074884;28;20198;-66
2024/04/05 06:42:11;;;;;;;9.27;1.30;;;;;;;13.32;83.21;96522.97;2074345;28;20214;-65
2024/04/05 06:44:52;;;;;;;4.68;1.30;;;;;;;13.11;84.34;96523.28;2102108;27;20572;-63
2024/04/05 06:45:53;;;;;;;6.70;1.50;;;;;;;13.09;84.01;96522.53;2095262;28;20201;-63
2024/04/05 06:46:54;;;;;;;3.42;1.30;;;;;;;13.02;84.83;96514.16;2086976;28;20201;-64
2024/04/05 06:49:22;;;;;;;10.55;1.33;;;;;;;13.04;85.60;96512.28;2086094;28;20580;-66
2024/04/05 06:50:25;;;;;;;3.25;1.23;;;;;;;13.10;84.81;96523.38;2082001;28;20212;-66
2024/04/05 06:52:44;;;;;;;3.47;1.02;;;;;;;13.01;84.08;96516.88;2082661;27;20551;-63
2024/04/05 06:53:45;;;;;;;4.53;1.50;;;;;;;13.10;84.23;96512.88;2075202;28;20213;-64
2024/04/05 06:54:46;;;;;;;3.40;1.00;;;;;;;13.19;84.05;96515.81;2065971;28;20214;-63
2024/04/05 06:55:50;;;;;;;6.93;1.70;;;;;;;13.06;84.68;96510.44;2063643;28;20317;-64
2024/04/05 06:56:50;;;;;;;6.55;1.15;;;;;;;13.27;84.75;96517.16;2064109;28;20444;-64
2024/04/05 06:57:52;;;;;;;6.47;1.37;;;;;;;13.35;84.83;96509.69;2073007;28;20273;-63
2024/04/05 06:58:52;;;;;;;5.95;1.30;;;;;;;13.36;84.44;96508.75;2072765;28;20209;-63
2024/04/05 06:59:53;;;;;;;12.33;1.30;;;;;;;13.36;83.61;96508.75;2071018;28;20202;-64
2024/04/05 07:00:53;;;;;;;6.43;1.57;;;;;;;13.35;83.64;96507.06;2087487;28;20239;-64
2024/04/05 07:01:54;;;;;;;4.17;1.60;;;;;;;13.33;83.45;96506.31;2076971;28;20219;-64
2024/04/05 07:02:55;;;;;;;6.35;1.55;;;;;;;13.36;84.09;96511.38;2064459;28;20207;-64
2024/04/05 07:03:55;;;;;;;4.77;1.30;;;;;;;13.44;83.32;96506.56;2058278;28;20254;-64
2024/04/05 07:04:56;;;;;;;10.23;1.50;;;;;;;13.55;82.28;96509.41;2058166;28;20271;-64
2024/04/05 07:06:00;;;;;;;6.50;1.20;;;;;;;13.32;83.75;96508.09;2066557;28;20282;-63
2024/04/05 07:07:01;;;;;;;5.45;1.20;;;;;;;13.34;83.34;96497.50;2068430;28;20272;-64
2024/04/05 07:08:01;;;;;;;5.93;1.43;;;;;;;13.33;83.94;96501.06;2074253;28;20213;-63
2024/04/05 07:09:04;;;;;;;4.10;1.40;;;;;;;13.10;84.26;96499.78;2074720;28;20876;-64
2024/04/05 07:10:05;;;;;;;9.88;1.73;;;;;;;13.02;84.26;96500.22;2073575;28;20241;-63
2024/04/05 07:11:09;;;;;;;4.67;1.30;;;;;;;13.10;84.06;96499.78;2074664;28;20289;-64
2024/04/05 07:12:11;;;;;;;5.72;1.80;;;;;;;12.97;84.74;96499.63;2072339;28;20223;-64
2024/04/05 07:13:12;;;;;;;4.22;1.45;;;;;;;13.05;84.50;96506.13;2064646;28;20292;-64
2024/04/05 07:14:14;;;;;;;5.93;1.23;;;;;;;13.19;84.36;96513.22;2063685;28;20254;-64
2024/04/05 07:15:15;;;;;;;8.52;1.50;;;;;;;13.37;84.02;96513.13;2071514;28;20210;-64
2024/04/05 07:16:15;;;;;;;3.50;1.40;;;;;;;13.27;83.69;96515.38;2071822;28;20202;-66
2024/04/05 07:17:16;;;;;;;6.17;1.70;;;;;;;13.52;83.20;96514.84;2070091;28;20849;-66
2024/04/05 07:18:22;;;;;;;6.10;1.33;;;;;;;13.46;82.58;96514.34;2069726;28;20595;-66
2024/04/05 07:19:24;;;;;;;5.57;1.38;;;;;;;13.55;82.76;96519.88;2070316;28;20614;-66
2024/04/05 07:20:25;;;;;;;5.15;1.00;;;;;;;13.57;82.67;96517.16;2070923;28;20321;-66
2024/04/05 07:21:26;;;;;;;5.80;1.83;;;;;;;13.45;81.81;96515.28;2070723;28;20214;-66
2024/04/05 07:23:33;;;;;;;8.38;1.50;;;;;;;13.10;83.45;96511.09;2103221;27;20564;-66
2024/04/05 07:25:40;;;;;;;4.45;1.38;;;;;;;12.94;84.14;96508.50;2086131;27;20545;-64
2024/04/05 07:26:42;;;;;;;4.57;1.20;;;;;;;13.02;84.28;96511.53;2081624;28;20205;-64
2024/04/05 07:27:43;;;;;;;5.32;1.27;;;;;;;13.05;84.34;96500.03;2069474;28;20217;-65
2024/04/05 07:28:43;;;;;;;4.65;1.25;;;;;;;12.95;84.51;96502.34;2070983;28;20200;-66
2024/04/05 07:29:45;;;;;;;7.40;1.60;;;;;;;12.90;84.92;96493.91;2079978;28;20200;-65
2024/04/05 07:30:45;;;;;;;7.53;1.35;;;;;;;13.02;84.51;96497.59;2070858;28;20200;-66
2024/04/05 07:31:48;;;;;;;6.20;1.27;;;;;;;13.14;83.74;96486.41;2074367;28;20205;-66
2024/04/05 07:32:50;;;;;;;4.35;1.60;;;;;;;13.12;83.18;96487.44;2072846;28;20212;-65
2024/04/05 07:33:51;;;;;;;6.72;1.60;;;;;;;13.20;83.48;96480.81;2081160;28;20843;-66
2024/04/05 07:34:51;;;;;;;5.07;1.40;;;;;;;13.12;83.66;96488.25;2072123;28;20236;-65
2024/04/05 07:35:55;;;;;;;3.53;1.33;;;;;;;13.19;83.41;96483.50;2071638;28;20206;-66
2024/04/05 07:36:55;;;;;;;9.35;1.52;;;;;;;13.23;83.92;96485.03;2068226;28;20209;-66
2024/04/05 07:37:56;;;;;;;6.20;1.60;;;;;;;13.02;83.48;96487.09;2067760;28;20209;-65
2024/04/05 07:38:57;;;;;;;7.43;1.50;;;;;;;13.06;83.69;96483.38;2071232;28;20448;-66
2024/04/05 07:39:58;;;;;;;7.70;1.83;;;;;;;13.27;83.39;96493.53;2072466;28;20217;-66
2024/04/05 07:41:06;;;;;;;7.13;1.30;;;;;;;13.46;82.58;96490.72;2081000;28;20236;-66
2024/04/05 07:42:06;;;;;;;3.67;1.25;;;;;;;13.48;82.02;96487.06;2071376;28;20209;-65
2024/04/05 07:43:07;;;;;;;3.30;1.10;;;;;;;13.65;81.77;96486.09;2075592;28;20205;-66
2024/04/05 07:44:07;;;;;;;6.60;1.57;;;;;;;13.98;79.86;96499.88;2091345;28;20810;-66
2024/04/05 07:45:08;;;;;;;5.80;1.60;;;;;;;13.83;80.24;96497.25;2087286;28;20221;-66
2024/04/05 07:46:08;;;;;;;5.73;1.20;;;;;;;14.20;79.15;96500.28;2070279;28;20275;-65
2024/04/05 07:47:09;;;;;;;4.10;1.23;;;;;;;14.81;77.64;96499.19;2066834;28;20205;-66
2024/04/05 07:48:09;;;;;;;3.83;1.30;;;;;;;15.06;76.01;96501.06;2080612;28;20205;-66
2024/04/05 07:49:11;;;;;;;5.10;1.33;;;;;;;15.49;75.23;96502.66;2080858;28;20284;-66
2024/04/05 07:50:11;;;;;;;3.58;1.30;;;;;;;15.29;75.12;96491.66;2081049;28;20193;-66
2024/04/05 07:51:11;;;;;;;3.10;1.30;;;;;;;15.09;75.56;96500.88;2070914;28;20209;-66
2024/04/05 07:52:12;;;;;;;8.60;2.07;;;;;;;14.86;75.13;96499.72;2068789;28;20229;-66
2024/04/05 07:53:12;;;;;;;3.20;1.30;;;;;;;15.39;74.33;96501.56;2066712;28;20213;-66
2024/04/05 07:54:14;;;;;;;12.97;2.17;;;;;;;15.78;73.64;96499.84;2065260;28;20211;-66
2024/04/05 07:55:14;;;;;;;4.25;1.23;;;;;;;15.90;73.29;96496.41;2065992;28;20206;-65
2024/04/05 07:56:15;;;;;;;5.20;1.40;;;;;;;16.18;71.30;96502.41;2071736;28;20289;-66
2024/04/05 07:57:15;;;;;;;7.70;1.40;;;;;;;15.88;71.55;96494.84;2068320;28;20296;-66
2024/04/05 07:58:16;;;;;;;6.33;1.47;;;;;;;16.18;71.79;96504.22;2071385;28;20277;-66
2024/04/05 07:59:16;;;;;;;8.33;1.10;;;;;;;16.56;71.15;96500.69;2071972;28;20217;-66
2024/04/05 08:00:20;;;;;;;3.83;1.33;;;;;;;16.88;68.94;96502.78;2079069;28;20205;-66
2024/04/05 08:01:21;;;;;;;2.15;1.25;;;;;;;16.62;70.39;96506.34;2086121;28;20212;-66
2024/04/05 08:02:27;;;;;;;4.32;1.38;;;;;;;17.00;68.67;96509.00;2087310;28;20243;-66
2024/04/05 08:03:28;;;;;;;6.95;1.23;;;;;;;16.96;69.35;96506.59;2074142;28;20217;-67
2024/04/05 08:04:29;;;;;;;3.70;1.23;;;;;;;17.08;68.67;96514.56;2068131;28;20210;-67
2024/04/05 08:05:29;;;;;;;7.30;1.50;;;;;;;16.91;68.52;96497.31;2069974;28;20222;-67
2024/04/05 08:06:30;;;;;;;5.83;1.47;;;;;;;17.18;68.42;96509.44;2067581;28;20206;-66
2024/04/05 08:07:31;;;;;;;5.00;1.10;;;;;;;17.25;67.75;96497.47;2066377;28;20729;-66
2024/04/05 08:08:31;;;;;;;2.97;1.03;;;;;;;17.15;67.60;96494.66;2088302;28;20965;-66
2024/04/05 08:09:32;;;;;;;2.60;1.30;;;;;;;17.17;67.75;96491.94;2089783;28;20906;-66
2024/04/05 08:10:32;;;;;;;3.00;1.20;;;;;;;17.14;67.55;96485.06;2066868;28;20221;-67
2024/04/05 08:11:33;;;;;;;3.93;1.47;;;;;;;17.65;67.50;96483.09;2065446;28;20617;-66
2024/04/05 08:12:34;;;;;;;5.90;1.40;;;;;;;18.12;66.54;96491.84;2071541;28;20229;-66
2024/04/05 08:13:34;;;;;;;5.70;1.30;;;;;;;18.14;66.64;96489.91;2071263;28;20563;-66
2024/04/05 08:14:36;;;;;;;5.37;1.60;;;;;;;18.28;65.58;96492.34;2068313;28;20220;-66
2024/04/05 08:15:36;;;;;;;5.50;1.25;;;;;;;18.19;66.63;96502.78;2071806;28;20201;-66
2024/04/05 08:16:38;;;;;;;5.93;1.50;;;;;;;18.19;65.97;96502.78;2089860;28;20200;-66
2024/04/05 08:17:39;;;;;;;5.10;1.23;;;;;;;17.97;65.78;96503.59;2086865;28;20212;-66
2024/04/05 08:18:39;;;;;;;6.70;1.20;;;;;;;17.74;65.63;96501.72;2081589;28;20212;-66
2024/04/05 08:19:40;;;;;;;4.60;1.17;;;;;;;17.74;66.67;96492.97;2074400;28;20253;-67
2024/04/05 08:20:41;;;;;;;5.43;1.50;;;;;;;18.16;65.10;96498.56;2081906;28;20206;-67
2024/04/05 08:21:41;;;;;;;3.57;1.10;;;;;;;18.74;64.82;96490.50;2071697;28;20217;-66
2024/04/05 08:22:42;;;;;;;5.50;1.53;;;;;;;18.33;64.63;96499.06;2082145;28;20349;-66
2024/04/05 08:23:42;;;;;;;3.57;1.07;;;;;;;18.13;65.12;96492.69;2084408;28;20200;-66
2024/04/05 08:24:43;;;;;;;4.03;1.00;;;;;;;17.61;66.16;96503.59;2066454;28;20206;-66
2024/04/05 08:25:44;;;;;;;6.33;1.17;;;;;;;17.69;65.56;96503.88;2069633;28;20658;-66
2024/04/05 08:26:45;;;;;;;8.90;1.50;;;;;;;17.83;64.62;96507.28;2069246;28;21043;-66
2024/04/05 08:27:49;;;;;;;5.00;1.25;;;;;;;17.90;66.45;96505.81;2070330;28;20551;-66
2024/04/05 08:28:50;;;;;;;5.85;1.45;;;;;;;17.27;67.01;96504.31;2073924;28;20236;-67
2024/04/05 08:29:51;;;;;;;8.70;1.48;;;;;;;17.38;67.47;96502.69;2078198;28;20216;-67
2024/04/05 08:30:52;;;;;;;5.20;1.40;;;;;;;17.32;66.55;96500.50;2074491;28;21054;-67
2024/04/05 08:31:53;;;;;;;5.00;1.50;;;;;;;17.22;66.73;96506.47;2073189;28;20237;-68
2024/04/05 08:32:54;;;;;;;8.68;1.45;;;;;;;17.10;67.19;96510.00;2072980;28;20218;-66
2024/04/05 08:33:55;;;;;;;4.23;1.70;;;;;;;17.30;66.30;96505.91;2072286;28;20215;-67
2024/04/05 08:34:58;;;;;;;3.30;1.20;;;;;;;17.37;67.25;96501.00;2084519;28;20246;-68
2024/04/05 08:35:59;;;;;;;3.75;1.10;;;;;;;17.49;66.63;96501.91;2086471;28;20496;-68
2024/04/05 08:36:59;;;;;;;4.90;1.63;;;;;;;17.55;66.62;96490.88;2062694;28;20269;-68
2024/04/05 08:38:01;;;;;;;7.87;1.17;;;;;;;17.93;66.18;96497.69;2081053;28;20204;-68
2024/04/05 08:39:03;;;;;;;7.80;1.10;;;;;;;17.94;65.85;96494.09;2082748;28;20216;-68
2024/04/05 08:40:05;;;;;;;4.18;1.27;;;;;;;17.73;65.43;96494.75;2080700;28;20270;-68
2024/04/05 08:41:06;;;;;;;9.73;1.35;;;;;;;17.39;66.55;96491.19;2082414;28;20220;-68
2024/04/05 08:42:12;;;;;;;5.13;1.20;;;;;;;17.45;66.42;96491.56;2083694;28;20499;-68
2024/04/05 08:43:15;;;;;;;3.00;1.42;;;;;;;17.34;66.77;96486.22;2082078;28;20216;-67
2024/04/05 08:44:16;;;;;;;5.07;1.48;;;;;;;17.57;67.61;96484.53;2074010;28;20205;-68
2024/04/05 08:45:17;;;;;;;7.25;1.80;;;;;;;17.22;67.91;96493.28;2065222;28;20218;-68
2024/04/05 08:46:17;;;;;;;4.83;1.63;;;;;;;17.41;67.72;96487.47;2067306;28;20281;-68
2024/04/05 08:47:20;;;;;;;3.20;1.30;;;;;;;17.55;67.66;96483.78;2070085;28;20226;-68
2024/04/05 08:48:21;;;;;;;2.65;1.10;;;;;;;17.85;66.78;96489.50;2065994;28;20221;-69
2024/04/05 08:49:26;;;;;;;8.90;2.08;;;;;;;17.40;65.87;96483.13;2067346;28;20253;-69
2024/04/05 08:50:28;;;;;;;5.70;1.55;;;;;;;17.24;66.63;96482.59;2067177;28;20206;-68
2024/04/05 08:51:29;;;;;;;3.95;1.40;;;;;;;17.11;65.43;96495.88;2070416;28;20216;-69
2024/04/05 08:52:30;;;;;;;7.27;1.27;;;;;;;17.06;66.15;96496.19;2063694;28;20223;-68
2024/04/05 08:53:32;;;;;;;13.00;1.42;;;;;;;17.03;66.02;96485.03;2065622;28;20202;-68
2024/04/05 08:54:34;;;;;;;5.20;1.42;;;;;;;17.02;66.23;96496.53;2067821;28;20218;-68
2024/04/05 08:55:38;;;;;;;4.68;1.20;;;;;;;17.22;66.26;96503.81;2067157;28;20765;-68
2024/04/05 08:56:43;;;;;;;7.65;1.13;;;;;;;17.47;66.40;96499.34;2066630;28;20231;-68
2024/04/05 08:57:45;;;;;;;7.78;1.30;;;;;;;17.56;65.58;96492.53;2064520;28;20221;-68
2024/04/05 08:58:46;;;;;;;5.63;1.90;;;;;;;17.69;65.80;96495.13;2085729;28;20259;-68
2024/04/05 08:59:50;;;;;;;4.13;1.33;;;;;;;17.34;66.30;96494.16;2083771;28;20288;-69
2024/04/05 09:00:51;;;;;;;2.70;1.20;;;;;;;17.50;66.36;96493.03;2067345;28;20197;-69
2024/04/05 09:01:54;;;;;;;6.43;1.45;;;;;;;17.44;66.87;96484.59;2082327;28;20216;-68
2024/04/05 09:02:56;;;;;;;4.72;1.20;;;;;;;17.56;67.29;96481.97;2079438;28;20545;-68
2024/04/05 09:03:57;;;;;;;5.30;1.45;;;;;;;17.78;67.14;96487.31;2059108;28;20211;-68
2024/04/05 09:05:03;;;;;;;4.28;1.20;;;;;;;17.85;66.72;96500.06;2054020;28;20208;-68
2024/04/05 09:06:04;;;;;;;2.65;1.15;;;;;;;17.76;65.63;96485.75;2058344;28;20691;-69
2024/04/05 09:07:04;;;;;;;4.90;1.30;;;;;;;17.44;65.86;96484.59;2058802;28;20571;-68
2024/04/05 09:08:06;;;;;;;4.13;1.50;;;;;;;17.51;65.11;96492.91;2065405;28;20210;-68
2024/04/05 09:09:06;;;;;;;3.60;1.20;;;;;;;17.38;65.78;96487.72;2082340;28;20717;-68
2024/04/05 09:10:11;;;;;;;8.00;1.00;;;;;;;17.49;66.00;96483.44;2074889;28;20627;-69
2024/04/05 09:11:22;;;;;;;4.35;1.35;;;;;;;17.60;66.74;96476.38;2066833;28;20210;-68
2024/04/05 09:12:25;;;;;;;5.32;1.42;;;;;;;17.78;65.92;96481.22;2074341;28;20694;-69
2024/04/05 09:13:26;;;;;;;5.70;1.23;;;;;;;18.26;65.06;96482.84;2077051;28;20219;-69
2024/04/05 09:14:27;;;;;;;4.60;1.20;;;;;;;18.37;64.61;96474.06;2074739;28;20217;-69
2024/04/05 09:15:29;;;;;;;3.00;1.00;;;;;;;18.01;64.13;96473.34;2082689;28;20240;-69
2024/04/05 09:16:34;;;;;;;4.78;1.30;;;;;;;17.94;64.58;96473.81;2078913;28;20231;-69
2024/04/05 09:17:35;;;;;;;3.78;1.10;;;;;;;17.70;65.98;96473.88;2060287;28;20754;-68
2024/04/05 09:18:35;;;;;;;5.23;1.40;;;;;;;17.73;65.02;96473.63;2075497;28;20209;-70
2024/04/05 09:19:36;;;;;;;4.40;1.00;;;;;;;17.67;65.20;96468.81;2083796;28;20762;-69
2024/04/05 09:20:36;;;;;;;5.40;1.70;;;;;;;17.87;64.76;96466.47;2064408;28;20199;-69
2024/04/05 09:21:43;;;;;;;2.40;1.03;;;;;;;18.05;64.35;96480.06;2067097;28;20232;-69
2024/04/05 09:22:44;;;;;;;10.55;1.52;;;;;;;18.17;64.65;96463.28;2078645;28;20314;-70
2024/04/05 09:23:49;;;;;;;4.37;1.47;;;;;;;17.94;63.85;96457.13;2068423;28;20201;-68
2024/04/05 09:25:03;;;;;;;4.40;1.10;;;;;;;18.19;63.74;96466.63;2060935;28;20595;-69
2024/04/05 09:26:03;;;;;;;5.93;1.30;;;;;;;18.01;63.58;96470.72;2069019;28;20251;-70
2024/04/05 09:27:06;;;;;;;4.13;0.90;;;;;;;17.90;63.07;96463.56;2053527;28;20784;-70
2024/04/05 09:28:10;;;;;;;7.97;1.05;;;;;;;17.75;63.27;96458.53;2063831;28;20221;-70
2024/04/05 09:29:14;;;;;;;5.30;1.33;;;;;;;17.89;63.63;96456.59;2067604;28;20550;-68
2024/04/05 09:30:15;;;;;;;3.80;1.40;;;;;;;18.01;64.33;96478.63;2068571;28;20247;-69
2024/04/05 09:31:19;;;;;;;3.72;1.08;;;;;;;17.99;63.18;96462.91;2077080;28;20581;-69
2024/04/05 09:32:19;;;;;;;7.22;1.45;;;;;;;18.17;62.98;96465.06;2066561;28;20218;-69
2024/04/05 09:33:20;;;;;;;3.00;1.20;;;;;;;18.30;63.18;96472.84;2068480;28;20206;-69
2024/04/05 09:34:28;;;;;;;6.33;1.37;;;;;;;18.36;63.15;96453.88;2081384;28;20284;-69
2024/04/05 09:35:30;;;;;;;7.65;1.10;;;;;;;18.46;63.13;96462.75;2075214;28;20454;-69
2024/04/05 09:36:32;;;;;;;2.92;1.20;;;;;;;18.69;62.96;96455.63;2060188;28;20589;-70
2024/04/05 09:37:33;;;;;;;3.75;1.10;;;;;;;19.01;61.47;96457.50;2067746;28;20221;-69
2024/04/05 09:38:35;;;;;;;5.07;1.10;;;;;;;19.25;62.32;96457.28;2064003;28;20214;-70
2024/04/05 09:39:36;;;;;;;7.60;1.15;;;;;;;19.47;61.50;96458.13;2060312;28;20206;-69
2024/04/05 09:40:39;;;;;;;3.43;1.13;;;;;;;19.22;62.17;96457.56;2062528;28;20257;-69
2024/04/05 09:41:40;;;;;;;2.03;1.05;;;;;;;19.29;62.79;96460.53;2054832;28;20446;-70
2024/04/05 09:42:42;;;;;;;3.10;1.10;;;;;;;19.69;62.43;96457.19;2069402;28;20245;-70
2024/04/05 09:43:42;;;;;;;4.88;1.30;;;;;;;19.39;61.31;96456.13;2082578;28;20975;-70
2024/04/05 09:44:44;;;;;;;5.40;1.30;;;;;;;18.84;62.53;96461.50;2066713;28;20213;-67
2024/04/05 09:45:47;;;;;;;4.22;1.13;;;;;;;18.91;62.25;96453.94;2068385;28;20253;-68
2024/04/05 09:46:52;;;;;;;9.85;1.73;;;;;;;19.02;62.08;96459.19;2065091;28;20211;-68
2024/04/05 09:47:53;;;;;;;5.20;1.05;;;;;;;19.03;62.43;96441.50;2064114;28;20304;-68
2024/04/05 09:49:00;;;;;;;5.33;1.10;;;;;;;19.53;62.21;96443.56;2067586;28;20260;-69
2024/04/05 09:50:02;;;;;;;4.80;1.40;;;;;;;19.82;61.42;96446.41;2062723;28;20460;-69
2024/04/05 09:51:13;;;;;;;4.57;1.40;;;;;;;19.54;61.06;96434.63;2066140;28;20260;-69
2024/04/05 09:52:14;;;;;;;3.35;1.02;;;;;;;19.71;61.05;96439.34;2085068;28;20834;-70
2024/04/05 09:53:16;;;;;;;4.23;1.43;;;;;;;19.53;61.67;96447.03;2081791;28;20718;-71
2024/04/05 09:54:17;;;;;;;3.70;1.10;;;;;;;19.52;59.86;96441.88;2066994;28;20553;-71
2024/04/05 09:55:23;;;;;;;4.22;1.00;;;;;;;19.74;61.17;96435.59;2066304;28;20229;-71
2024/04/05 09:56:25;;;;;;;3.90;1.40;;;;;;;19.92;59.91;96442.97;2082765;28;20201;-70
2024/04/05 09:57:27;;;;;;;5.13;1.38;;;;;;;19.99;59.72;96437.00;2073242;28;20225;-71
2024/04/05 09:58:30;;;;;;;4.15;1.05;;;;;;;19.42;60.03;96439.97;2060358;28;20214;-71
2024/04/05 09:59:34;;;;;;;4.10;1.60;;;;;;;19.78;60.66;96436.16;2058356;28;20213;-70
2024/04/05 10:00:36;;;;;;;4.57;1.30;;;;;;;19.72;59.60;96459.56;2055514;28;20217;-72
2024/04/05 10:01:39;;;;;;;3.78;1.10;;;;;;;19.51;59.99;96445.50;2068204;28;20203;-71
2024/04/05 10:02:46;;;;;;;4.38;1.25;;;;;;;19.73;59.80;96439.19;2065531;28;20222;-71
2024/04/05 10:03:47;;;;;;;3.17;1.25;;;;;;;19.89;59.92;96444.91;2076416;28;20205;-68
2024/04/05 10:04:48;;;;;;;6.18;1.30;;;;;;;19.89;59.89;96441.44;2070357;28;20221;-73
2024/04/05 10:05:49;;;;;;;1.90;1.00;;;;;;;19.79;59.64;96451.09;2067624;28;20262;-70
2024/04/05 10:06:50;;;;;;;4.25;1.00;;;;;;;19.63;59.53;96447.13;2070837;28;20444;-69
2024/04/05 10:07:51;;;;;;;3.90;1.30;;;;;;;19.88;60.01;96437.94;2067304;28;20209;-70
2024/04/05 10:08:51;;;;;;;3.08;1.05;;;;;;;20.02;60.14;96433.25;2069825;28;20664;-70
2024/04/05 10:09:52;;;;;;;3.93;1.00;;;;;;;19.96;58.92;96434.63;2068070;28;20568;-70
2024/04/05 10:10:53;;;;;;;7.97;1.80;;;;;;;20.12;58.57;96420.06;2075663;28;20552;-70
2024/04/05 10:11:54;;;;;;;8.20;1.23;;;;;;;20.31;58.59;96428.06;2068249;28;20213;-69
2024/04/05 10:12:56;;;;;;;7.95;1.48;;;;;;;20.46;57.71;96430.34;2069276;28;20297;-70
2024/04/05 10:14:01;;;;;;;3.33;1.10;;;;;;;20.59;56.72;96428.28;2067726;28;20269;-69
2024/04/05 10:15:02;;;;;;;4.00;1.40;;;;;;;20.17;56.83;96423.16;2059174;28;20606;-69
2024/04/05 10:16:02;;;;;;;2.70;1.20;;;;;;;20.32;56.30;96428.94;2066024;28;20341;-69
2024/04/05 10:17:14;;;;;;;4.23;1.07;;;;;;;20.45;56.42;96421.56;2063191;28;20634;-69
2024/04/05 10:18:26;;;;;;;4.95;1.33;;;;;;;20.83;55.86;96419.97;2059970;28;20229;-67
2024/04/05 10:19:30;;;;;;;6.20;1.30;;;;;;;20.98;55.35;96409.78;2083976;28;20257;-69
2024/04/05 10:20:30;;;;;;;3.15;1.00;;;;;;;20.83;55.83;96416.50;2080924;28;20659;-69
2024/04/05 10:21:32;;;;;;;4.33;1.07;;;;;;;21.21;55.73;96423.63;2072807;28;20569;-69
2024/04/05 10:22:33;;;;;;;6.15;1.40;;;;;;;21.14;55.46;96409.25;2061243;28;20258;-69
2024/04/05 10:23:36;;;;;;;5.53;1.30;;;;;;;21.26;55.66;96412.59;2065614;28;20214;-70
2024/04/05 10:24:37;;;;;;;5.05;1.10;;;;;;;21.23;55.41;96409.38;2065844;28;20692;-69
2024/04/05 10:25:38;;;;;;;3.17;0.98;;;;;;;21.61;54.36;96407.66;2084127;28;20239;-69
2024/04/05 10:26:51;;;;;;;11.13;1.20;;;;;;;22.13;54.20;96401.91;2083023;28;20215;-69
2024/04/05 10:27:55;;;;;;;6.20;1.10;;;;;;;21.74;53.56;96410.88;2069450;28;20234;-69
2024/04/05 10:29:06;;;;;;;8.50;1.20;;;;;;;22.06;52.36;96404.31;2071820;28;20210;-70
2024/04/05 10:30:06;;;;;;;4.03;1.10;;;;;;;22.04;51.16;96411.59;2086502;28;20899;-69
2024/04/05 10:31:07;;;;;;;7.83;1.13;;;;;;;21.70;52.37;96404.19;2083326;28;21151;-69
2024/04/05 10:32:09;;;;;;;3.00;1.00;;;;;;;21.10;52.33;96391.06;2066927;28;20652;-69
2024/04/05 10:33:19;;;;;;;4.90;1.30;;;;;;;21.11;53.57;96408.69;2066515;28;20213;-70
2024/04/05 10:34:23;;;;;;;2.08;0.80;;;;;;;20.98;53.16;96393.88;2066069;28;20275;-69
2024/04/05 10:35:26;;;;;;;4.80;1.25;;;;;;;20.94;52.86;96392.47;2065850;28;20217;-69
2024/04/05 10:36:27;;;;;;;4.55;1.15;;;;;;;21.00;53.60;96394.59;2061497;28;20207;-69
2024/04/05 10:37:28;;;;;;;3.30;1.27;;;;;;;20.87;53.99;96388.69;2059493;28;20257;-69
2024/04/05 10:38:29;;;;;;;4.40;1.20;;;;;;;20.77;53.70;96401.13;2060981;28;20276;-69
2024/04/05 10:39:30;;;;;;;6.32;1.10;;;;;;;21.00;53.03;96385.75;2061757;28;20988;-65
2024/04/05 10:40:30;;;;;;;3.83;1.07;;;;;;;21.02;52.66;96387.31;2066455;28;20229;-65
2024/04/05 10:41:32;;;;;;;3.43;1.00;;;;;;;21.65;52.50;96387.81;2084962;28;20208;-66
2024/04/05 10:42:33;;;;;;;4.03;1.13;;;;;;;21.36;52.03;96394.81;2080462;28;20221;-66
2024/04/05 10:43:33;;;;;;;6.67;1.50;;;;;;;21.82;52.59;96394.19;2071570;28;20260;-65
2024/04/05 10:44:34;;;;;;;4.28;1.13;;;;;;;22.24;51.86;96376.97;2063681;28;20210;-66
2024/04/05 10:45:36;;;;;;;3.77;0.87;;;;;;;22.76;50.40;96387.84;2072797;28;20221;-66
2024/04/05 10:46:37;;;;;;;3.63;0.98;;;;;;;22.60;50.41;96382.38;2068211;28;20212;-65
2024/04/05 10:47:37;;;;;;;3.60;1.25;;;;;;;23.26;49.52;96388.34;2064211;28;20229;-66
2024/04/05 10:48:38;;;;;;;6.87;0.90;;;;;;;22.87;49.27;96372.66;2071651;28;20220;-66
2024/04/05 10:49:38;;;;;;;8.27;1.10;;;;;;;23.21;49.88;96382.63;2067431;28;20206;-69
2024/04/05 10:50:39;;;;;;;3.70;1.30;;;;;;;23.98;48.93;96374.84;2064313;28;20206;-69
2024/04/05 10:51:40;;;;;;;2.60;1.00;;;;;;;23.94;48.59;96371.66;2063071;28;20199;-70
2024/04/05 10:52:54;;;;;;;4.53;1.00;;;;;;;24.00;48.97;96377.34;2064450;28;20221;-69
2024/04/05 10:53:55;;;;;;;3.53;1.30;;;;;;;23.47;47.56;96364.84;2066808;28;20576;-69
2024/04/05 10:54:56;;;;;;;2.60;1.07;;;;;;;23.78;47.83;96380.38;2065841;28;20206;-69
2024/04/05 10:55:56;;;;;;;6.20;1.20;;;;;;;22.94;49.25;96371.06;2062266;28;20232;-69
2024/04/05 10:57:01;;;;;;;3.83;1.27;;;;;;;22.96;49.54;96375.25;2066234;28;20463;-69
2024/04/05 10:58:02;;;;;;;7.03;1.00;;;;;;;23.63;48.74;96364.13;2066608;28;20237;-69
2024/04/05 10:59:05;;;;;;;2.85;0.75;;;;;;;22.93;48.77;96372.03;2064546;28;20214;-69
2024/04/05 11:00:11;;;;;;;1.90;0.70;;;;;;;23.20;48.21;96379.16;2064303;28;20252;-69
2024/04/05 11:01:14;;;;;;;4.05;0.95;;;;;;;23.72;47.88;96380.16;2084287;28;20236;-69
2024/04/05 11:02:15;;;;;;;2.47;0.80;;;;;;;24.06;48.17;96379.38;2075569;28;20260;-70
2024/04/05 11:03:17;;;;;;;5.30;1.35;;;;;;;24.17;47.22;96373.75;2059525;28;20250;-70
2024/04/05 11:04:23;;;;;;;4.72;1.10;;;;;;;23.74;46.84;96378.19;2065980;28;20210;-70
2024/04/05 11:05:24;;;;;;;2.10;1.02;;;;;;;23.74;47.24;96378.19;2079362;28;20222;-70
2024/04/05 11:06:25;;;;;;;3.00;0.93;;;;;;;23.78;47.23;96384.88;2079210;28;20307;-70
2024/04/05 11:07:27;;;;;;;3.20;0.90;;;;;;;23.76;47.75;96374.38;2060775;28;20238;-70
2024/04/05 11:08:28;;;;;;;5.40;1.00;;;;;;;23.89;47.38;96383.78;2052974;28;20238;-70
2024/04/05 11:09:38;;;;;;;8.43;1.70;;;;;;;23.76;47.73;96376.22;2049845;28;20199;-70
2024/04/05 11:10:38;;;;;;;3.13;0.90;;;;;;;24.51;47.76;96372.88;2062671;28;20202;-70
2024/04/05 11:11:39;;;;;;;2.40;1.10;;;;;;;24.54;46.88;96375.22;2065486;28;20249;-70
2024/04/05 11:12:39;;;;;;;4.30;1.00;;;;;;;24.44;47.09;96379.84;2063893;28;20237;-70
2024/04/05 11:13:40;;;;;;;3.70;1.00;;;;;;;24.17;47.57;96384.44;2082434;28;20236;-70
2024/04/05 11:14:41;;;;;;;4.07;1.23;;;;;;;24.39;47.69;96384.84;2082567;28;20204;-70
2024/04/05 11:15:45;;;;;;;3.00;1.10;;;;;;;24.04;47.88;96394.72;2065731;28;20198;-70
2024/04/05 11:16:58;;;;;;;2.92;0.90;;;;;;;24.11;46.44;96387.72;2066804;28;20206;-70
2024/04/05 11:18:00;;;;;;;5.03;0.85;;;;;;;24.41;46.61;96383.69;2056390;28;20256;-66
2024/04/05 11:19:02;;;;;;;6.45;1.30;;;;;;;24.15;47.43;96375.78;2066051;28;20222;-66
2024/04/05 11:20:13;;;;;;;1.95;0.80;;;;;;;24.33;47.95;96375.66;2065055;28;20672;-67
2024/04/05 11:21:15;;;;;;;2.60;1.10;;;;;;;24.05;48.25;96380.38;2065231;28;20224;-66
2024/04/05 11:22:15;;;;;;;4.20;1.05;;;;;;;24.33;46.98;96383.66;2066151;28;20205;-66
2024/04/05 11:23:16;;;;;;;2.23;0.90;;;;;;;23.82;47.03;96378.25;2071407;28;20209;-67
2024/04/05 11:24:17;;;;;;;1.90;0.80;;;;;;;23.90;47.16;96382.78;2071314;28;20453;-66